sensor_id;sensor_type;location;lat;lon;timestamp;temperature;humidity
2387;DHT22;49473;50.772;8.768;2023-06-19T00:02:04;19.80;99.90
2387;DHT22;49473;50.772;8.768;2023-06-19T00:04:31;19.90;99.90
2387;DHT22;49473;50.772;8.768;2023-06-19T00:06:59;19.80;99.90
2387;DHT22;49473;50.772;8.768;2023-06-19T00:09:26;19.90;99.90
2387;DHT22;49473;50.772;8.768;2023-06-19T00:12:01;20.00;99.90
2387;DHT22;49473;50.772;8.768;2023-06-19T00:14:29;20.00;99.90
2387;DHT22;49473;50.772;8.768;2023-06-19T00:16:56;19.80;99.90
2387;DHT22;49473;50.772;8.768;2023-06-19T00:19:23;19.60;99.90
2387;DHT22;49473;50.772;8.768;2023-06-19T00:21:50;19.40;99.90
2387;DHT22;49473;50.772;8.768;2023-06-19T00:24:18;19.50;99.90
2387;DHT22;49473;50.772;8.768;2023-06-19T00:26:45;19.60;99.90
2387;DHT22;49473;50.772;8.768;2023-06-19T00:29:11;19.60;99.90
2387;DHT22;49473;50.772;8.768;2023-06-19T00:31:39;19.70;99.90
2387;DHT22;49473;50.772;8.768;2023-06-19T00:34:06;19.80;99.90
2387;DHT22;49473;50.772;8.768;2023-06-19T00:36:33;19.70;99.90
2387;DHT22;49473;50.772;8.768;2023-06-19T00:39:05;19.70;99.90
2387;DHT22;49473;50.772;8.768;2023-06-19T00:41:34;19.70;99.90
2387;DHT22;49473;50.772;8.768;2023-06-19T00:44:01;19.80;99.90
2387;DHT22;49473;50.772;8.768;2023-06-19T00:46:28;19.80;99.90
2387;DHT22;49473;50.772;8.768;2023-06-19T00:48:57;19.80;99.90
2387;DHT22;49473;50.772;8.768;2023-06-19T00:51:25;19.90;99.90
2387;DHT22;49473;50.772;8.768;2023-06-19T00:53:52;19.90;99.90
2387;DHT22;49473;50.772;8.768;2023-06-19T00:56:19;19.90;99.90
2387;DHT22;49473;50.772;8.768;2023-06-19T00:58:47;20.00;99.90
2387;DHT22;49473;50.772;8.768;2023-06-19T01:01:14;20.10;99.90
2387;DHT22;49473;50.772;8.768;2023-06-19T01:03:41;19.90;99.90
2387;DHT22;49473;50.772;8.768;2023-06-19T01:06:13;19.70;99.90
2387;DHT22;49473;50.772;8.768;2023-06-19T01:08:53;19.60;99.90
2387;DHT22;49473;50.772;8.768;2023-06-19T01:11:24;19.40;99.90
2387;DHT22;49473;50.772;8.768;2023-06-19T01:13:56;19.50;99.90
2387;DHT22;49473;50.772;8.768;2023-06-19T01:16:30;19.40;99.90
2387;DHT22;49473;50.772;8.768;2023-06-19T01:18:58;19.20;99.90
2387;DHT22;49473;50.772;8.768;2023-06-19T01:21:24;19.00;99.90
2387;DHT22;49473;50.772;8.768;2023-06-19T01:23:52;18.80;99.90
2387;DHT22;49473;50.772;8.768;2023-06-19T01:26:23;18.80;99.90
2387;DHT22;49473;50.772;8.768;2023-06-19T01:28:52;18.70;99.90
2387;DHT22;49473;50.772;8.768;2023-06-19T01:31:25;18.50;99.90
2387;DHT22;49473;50.772;8.768;2023-06-19T01:33:53;18.40;99.90
2387;DHT22;49473;50.772;8.768;2023-06-19T01:36:20;18.40;99.90
2387;DHT22;49473;50.772;8.768;2023-06-19T01:38:48;18.50;99.90
2387;DHT22;49473;50.772;8.768;2023-06-19T01:41:18;18.40;99.90
2387;DHT22;49473;50.772;8.768;2023-06-19T01:43:53;18.20;99.90
2387;DHT22;49473;50.772;8.768;2023-06-19T01:46:20;18.10;99.90
2387;DHT22;49473;50.772;8.768;2023-06-19T01:48:47;18.00;99.90
2387;DHT22;49473;50.772;8.768;2023-06-19T01:51:13;17.90;99.90
2387;DHT22;49473;50.772;8.768;2023-06-19T01:53:40;17.80;99.90
2387;DHT22;49473;50.772;8.768;2023-06-19T01:56:07;17.80;99.90
2387;DHT22;49473;50.772;8.768;2023-06-19T01:58:35;17.70;99.90
2387;DHT22;49473;50.772;8.768;2023-06-19T02:01:02;17.80;99.90
2387;DHT22;49473;50.772;8.768;2023-06-19T02:03:28;17.70;99.90
2387;DHT22;49473;50.772;8.768;2023-06-19T02:05:55;17.60;99.90
2387;DHT22;49473;50.772;8.768;2023-06-19T02:08:22;17.60;99.90
2387;DHT22;49473;50.772;8.768;2023-06-19T02:10:52;17.60;99.90
2387;DHT22;49473;50.772;8.768;2023-06-19T02:13:18;17.40;99.90
2387;DHT22;49473;50.772;8.768;2023-06-19T02:15:46;17.40;99.90
2387;DHT22;49473;50.772;8.768;2023-06-19T02:18:20;17.40;99.90
2387;DHT22;49473;50.772;8.768;2023-06-19T02:20:47;17.40;99.90
2387;DHT22;49473;50.772;8.768;2023-06-19T02:23:13;17.30;99.90
2387;DHT22;49473;50.772;8.768;2023-06-19T02:25:40;17.20;99.90
2387;DHT22;49473;50.772;8.768;2023-06-19T02:28:08;17.30;99.90
2387;DHT22;49473;50.772;8.768;2023-06-19T02:30:35;17.30;99.90
2387;DHT22;49473;50.772;8.768;2023-06-19T02:33:03;17.40;99.90
2387;DHT22;49473;50.772;8.768;2023-06-19T02:35:30;17.20;99.90
2387;DHT22;49473;50.772;8.768;2023-06-19T02:38:03;17.10;99.90
2387;DHT22;49473;50.772;8.768;2023-06-19T02:40:30;17.00;99.90
2387;DHT22;49473;50.772;8.768;2023-06-19T02:42:57;17.10;99.90
2387;DHT22;49473;50.772;8.768;2023-06-19T02:45:24;17.20;99.90
2387;DHT22;49473;50.772;8.768;2023-06-19T02:47:50;17.10;99.90
2387;DHT22;49473;50.772;8.768;2023-06-19T02:50:19;17.30;99.90
2387;DHT22;49473;50.772;8.768;2023-06-19T02:52:46;17.40;99.90
2387;DHT22;49473;50.772;8.768;2023-06-19T02:55:13;17.20;99.90
2387;DHT22;49473;50.772;8.768;2023-06-19T02:57:40;17.10;99.90
2387;DHT22;49473;50.772;8.768;2023-06-19T03:00:07;17.00;99.90
2387;DHT22;49473;50.772;8.768;2023-06-19T03:02:35;17.20;99.90
2387;DHT22;49473;50.772;8.768;2023-06-19T03:05:02;17.20;99.90
2387;DHT22;49473;50.772;8.768;2023-06-19T03:07:30;17.10;99.90
2387;DHT22;49473;50.772;8.768;2023-06-19T03:09:58;17.00;99.90
2387;DHT22;49473;50.772;8.768;2023-06-19T03:12:25;17.10;99.90
2387;DHT22;49473;50.772;8.768;2023-06-19T03:14:51;17.20;99.90
2387;DHT22;49473;50.772;8.768;2023-06-19T03:17:18;17.30;99.90
2387;DHT22;49473;50.772;8.768;2023-06-19T03:19:45;17.40;99.90
2387;DHT22;49473;50.772;8.768;2023-06-19T03:22:11;17.50;99.90
2387;DHT22;49473;50.772;8.768;2023-06-19T03:24:39;17.50;99.90
2387;DHT22;49473;50.772;8.768;2023-06-19T03:27:06;17.50;99.90
2387;DHT22;49473;50.772;8.768;2023-06-19T03:29:33;17.70;99.90
2387;DHT22;49473;50.772;8.768;2023-06-19T03:32:00;17.80;99.90
2387;DHT22;49473;50.772;8.768;2023-06-19T03:34:28;17.60;99.90
2387;DHT22;49473;50.772;8.768;2023-06-19T03:36:54;17.70;99.90
2387;DHT22;49473;50.772;8.768;2023-06-19T03:39:21;17.80;99.90
2387;DHT22;49473;50.772;8.768;2023-06-19T03:41:49;17.90;99.90
2387;DHT22;49473;50.772;8.768;2023-06-19T03:44:18;18.00;99.90
2387;DHT22;49473;50.772;8.768;2023-06-19T03:46:45;18.10;99.90
2387;DHT22;49473;50.772;8.768;2023-06-19T03:49:12;18.20;99.90
2387;DHT22;49473;50.772;8.768;2023-06-19T03:51:39;18.30;99.90
2387;DHT22;49473;50.772;8.768;2023-06-19T03:54:06;18.30;99.90
2387;DHT22;49473;50.772;8.768;2023-06-19T03:56:34;18.40;99.90
2387;DHT22;49473;50.772;8.768;2023-06-19T03:59:02;18.40;99.90
2387;DHT22;49473;50.772;8.768;2023-06-19T04:01:29;18.60;99.90
2387;DHT22;49473;50.772;8.768;2023-06-19T04:03:57;18.70;99.90
2387;DHT22;49473;50.772;8.768;2023-06-19T04:06:24;18.80;99.90
2387;DHT22;49473;50.772;8.768;2023-06-19T04:08:51;18.90;99.90
2387;DHT22;49473;50.772;8.768;2023-06-19T04:11:20;18.90;99.90
2387;DHT22;49473;50.772;8.768;2023-06-19T04:13:47;18.90;99.90
2387;DHT22;49473;50.772;8.768;2023-06-19T04:16:15;19.00;99.90
2387;DHT22;49473;50.772;8.768;2023-06-19T04:18:42;19.00;99.90
2387;DHT22;49473;50.772;8.768;2023-06-19T04:21:08;19.10;99.90
2387;DHT22;49473;50.772;8.768;2023-06-19T04:23:35;18.90;99.90
2387;DHT22;49473;50.772;8.768;2023-06-19T04:26:02;18.70;99.90
2387;DHT22;49473;50.772;8.768;2023-06-19T04:28:29;18.70;99.90
2387;DHT22;49473;50.772;8.768;2023-06-19T04:30:55;18.70;99.90
2387;DHT22;49473;50.772;8.768;2023-06-19T04:33:27;18.50;99.90
2387;DHT22;49473;50.772;8.768;2023-06-19T04:35:54;18.50;99.90
2387;DHT22;49473;50.772;8.768;2023-06-19T04:38:21;18.50;99.90
2387;DHT22;49473;50.772;8.768;2023-06-19T04:40:49;18.50;99.90
2387;DHT22;49473;50.772;8.768;2023-06-19T04:43:16;18.50;99.90
2387;DHT22;49473;50.772;8.768;2023-06-19T04:45:43;18.70;99.90
2387;DHT22;49473;50.772;8.768;2023-06-19T04:48:10;18.80;99.90
2387;DHT22;49473;50.772;8.768;2023-06-19T04:50:38;19.00;99.90
2387;DHT22;49473;50.772;8.768;2023-06-19T04:53:22;19.10;99.90
2387;DHT22;49473;50.772;8.768;2023-06-19T04:55:49;19.20;99.90
2387;DHT22;49473;50.772;8.768;2023-06-19T04:58:16;19.30;99.90
2387;DHT22;49473;50.772;8.768;2023-06-19T05:00:45;19.40;99.90
2387;DHT22;49473;50.772;8.768;2023-06-19T05:03:16;19.50;99.90
2387;DHT22;49473;50.772;8.768;2023-06-19T05:05:44;19.70;99.90
2387;DHT22;49473;50.772;8.768;2023-06-19T05:08:12;19.80;99.90
2387;DHT22;49473;50.772;8.768;2023-06-19T05:10:39;19.80;99.90
2387;DHT22;49473;50.772;8.768;2023-06-19T05:13:06;19.80;99.90
2387;DHT22;49473;50.772;8.768;2023-06-19T05:15:44;19.90;99.90
2387;DHT22;49473;50.772;8.768;2023-06-19T05:18:11;20.00;99.90
2387;DHT22;49473;50.772;8.768;2023-06-19T05:20:38;20.00;99.90
2387;DHT22;49473;50.772;8.768;2023-06-19T05:23:06;20.10;99.90
2387;DHT22;49473;50.772;8.768;2023-06-19T05:25:35;20.10;99.90
2387;DHT22;49473;50.772;8.768;2023-06-19T05:28:02;20.10;99.90
2387;DHT22;49473;50.772;8.768;2023-06-19T05:30:29;20.20;99.90
2387;DHT22;49473;50.772;8.768;2023-06-19T05:32:56;20.10;99.90
2387;DHT22;49473;50.772;8.768;2023-06-19T05:35:24;20.10;99.90
2387;DHT22;49473;50.772;8.768;2023-06-19T05:37:52;20.20;99.90
2387;DHT22;49473;50.772;8.768;2023-06-19T05:40:20;20.40;99.90
2387;DHT22;49473;50.772;8.768;2023-06-19T05:42:47;20.60;99.90
2387;DHT22;49473;50.772;8.768;2023-06-19T05:45:20;20.90;99.90
2387;DHT22;49473;50.772;8.768;2023-06-19T05:47:46;21.20;99.90
2387;DHT22;49473;50.772;8.768;2023-06-19T05:50:13;21.50;99.90
2387;DHT22;49473;50.772;8.768;2023-06-19T05:52:40;21.70;99.90
2387;DHT22;49473;50.772;8.768;2023-06-19T05:55:09;21.80;99.90
2387;DHT22;49473;50.772;8.768;2023-06-19T05:57:37;21.90;99.90
2387;DHT22;49473;50.772;8.768;2023-06-19T06:00:05;21.80;99.90
2387;DHT22;49473;50.772;8.768;2023-06-19T06:02:56;21.70;99.90
2387;DHT22;49473;50.772;8.768;2023-06-19T06:05:25;21.90;99.90
2387;DHT22;49473;50.772;8.768;2023-06-19T06:07:51;22.10;99.90
2387;DHT22;49473;50.772;8.768;2023-06-19T06:10:19;22.30;99.90
2387;DHT22;49473;50.772;8.768;2023-06-19T06:12:48;22.50;99.90
2387;DHT22;49473;50.772;8.768;2023-06-19T06:15:15;22.60;99.90
2387;DHT22;49473;50.772;8.768;2023-06-19T06:17:42;22.70;99.90
2387;DHT22;49473;50.772;8.768;2023-06-19T06:20:09;22.80;99.90
2387;DHT22;49473;50.772;8.768;2023-06-19T06:22:37;23.10;99.90
2387;DHT22;49473;50.772;8.768;2023-06-19T06:25:05;23.70;99.90
2387;DHT22;49473;50.772;8.768;2023-06-19T06:27:32;24.10;99.90
2387;DHT22;49473;50.772;8.768;2023-06-19T06:30:00;24.70;99.90
2387;DHT22;49473;50.772;8.768;2023-06-19T06:32:27;24.90;99.90
2387;DHT22;49473;50.772;8.768;2023-06-19T06:35:03;25.10;99.90
2387;DHT22;49473;50.772;8.768;2023-06-19T06:37:29;25.50;99.90
2387;DHT22;49473;50.772;8.768;2023-06-19T06:39:56;25.80;99.90
2387;DHT22;49473;50.772;8.768;2023-06-19T06:42:23;26.10;99.90
2387;DHT22;49473;50.772;8.768;2023-06-19T06:44:57;26.30;99.90
2387;DHT22;49473;50.772;8.768;2023-06-19T06:47:25;26.20;99.90
2387;DHT22;49473;50.772;8.768;2023-06-19T06:49:52;26.30;99.90
2387;DHT22;49473;50.772;8.768;2023-06-19T06:52:18;26.20;99.90
2387;DHT22;49473;50.772;8.768;2023-06-19T06:54:51;26.60;99.90
2387;DHT22;49473;50.772;8.768;2023-06-19T06:57:18;27.10;99.90
2387;DHT22;49473;50.772;8.768;2023-06-19T06:59:45;27.60;99.90
2387;DHT22;49473;50.772;8.768;2023-06-19T07:02:11;27.90;99.90
2387;DHT22;49473;50.772;8.768;2023-06-19T07:04:39;28.00;99.90
2387;DHT22;49473;50.772;8.768;2023-06-19T07:07:10;28.50;99.90
2387;DHT22;49473;50.772;8.768;2023-06-19T07:09:36;29.00;99.90
2387;DHT22;49473;50.772;8.768;2023-06-19T07:12:08;29.50;99.90
2387;DHT22;49473;50.772;8.768;2023-06-19T07:14:34;29.70;99.90
2387;DHT22;49473;50.772;8.768;2023-06-19T07:17:01;29.70;99.90
2387;DHT22;49473;50.772;8.768;2023-06-19T07:19:29;29.70;99.90
2387;DHT22;49473;50.772;8.768;2023-06-19T07:21:57;29.10;99.90
2387;DHT22;49473;50.772;8.768;2023-06-19T07:24:24;29.00;99.90
2387;DHT22;49473;50.772;8.768;2023-06-19T07:26:51;28.70;99.90
2387;DHT22;49473;50.772;8.768;2023-06-19T07:29:18;28.40;99.90
2387;DHT22;49473;50.772;8.768;2023-06-19T07:31:46;28.50;99.90
2387;DHT22;49473;50.772;8.768;2023-06-19T07:34:13;28.60;99.90
2387;DHT22;49473;50.772;8.768;2023-06-19T07:36:40;28.50;99.90
2387;DHT22;49473;50.772;8.768;2023-06-19T07:39:09;28.40;99.90
2387;DHT22;49473;50.772;8.768;2023-06-19T07:41:36;28.80;99.90
2387;DHT22;49473;50.772;8.768;2023-06-19T07:44:03;28.90;99.90
2387;DHT22;49473;50.772;8.768;2023-06-19T07:46:30;28.90;99.90
2387;DHT22;49473;50.772;8.768;2023-06-19T07:49:04;28.60;99.90
2387;DHT22;49473;50.772;8.768;2023-06-19T07:51:31;28.50;99.90
2387;DHT22;49473;50.772;8.768;2023-06-19T07:53:58;28.50;99.90
2387;DHT22;49473;50.772;8.768;2023-06-19T07:56:26;28.80;99.90
2387;DHT22;49473;50.772;8.768;2023-06-19T07:58:53;29.40;99.90
2387;DHT22;49473;50.772;8.768;2023-06-19T08:01:22;30.00;99.90
2387;DHT22;49473;50.772;8.768;2023-06-19T08:03:48;30.60;99.90
2387;DHT22;49473;50.772;8.768;2023-06-19T08:06:15;31.30;99.90
2387;DHT22;49473;50.772;8.768;2023-06-19T08:08:42;31.50;99.90
2387;DHT22;49473;50.772;8.768;2023-06-19T08:11:08;31.30;99.90
2387;DHT22;49473;50.772;8.768;2023-06-19T08:13:36;31.30;99.90
2387;DHT22;49473;50.772;8.768;2023-06-19T08:16:04;31.50;99.90
2387;DHT22;49473;50.772;8.768;2023-06-19T08:18:40;31.20;99.90
2387;DHT22;49473;50.772;8.768;2023-06-19T08:21:08;31.30;99.90
2387;DHT22;49473;50.772;8.768;2023-06-19T08:23:34;31.50;99.90
2387;DHT22;49473;50.772;8.768;2023-06-19T08:26:01;31.60;99.90
2387;DHT22;49473;50.772;8.768;2023-06-19T08:28:28;31.40;99.90
2387;DHT22;49473;50.772;8.768;2023-06-19T08:30:56;31.80;99.90
2387;DHT22;49473;50.772;8.768;2023-06-19T08:33:29;31.90;99.90
2387;DHT22;49473;50.772;8.768;2023-06-19T08:35:56;31.80;99.90
2387;DHT22;49473;50.772;8.768;2023-06-19T08:38:22;31.80;99.90
2387;DHT22;49473;50.772;8.768;2023-06-19T08:40:49;32.50;99.90
2387;DHT22;49473;50.772;8.768;2023-06-19T08:43:16;32.80;99.90
2387;DHT22;49473;50.772;8.768;2023-06-19T08:45:43;33.20;99.90
2387;DHT22;49473;50.772;8.768;2023-06-19T08:48:13;33.20;99.90
2387;DHT22;49473;50.772;8.768;2023-06-19T08:50:40;33.50;99.90
2387;DHT22;49473;50.772;8.768;2023-06-19T08:53:07;34.00;99.40
2387;DHT22;49473;50.772;8.768;2023-06-19T08:55:33;34.60;98.20
2387;DHT22;49473;50.772;8.768;2023-06-19T08:58:21;33.70;97.70
2387;DHT22;49473;50.772;8.768;2023-06-19T09:00:48;33.30;97.40
2387;DHT22;49473;50.772;8.768;2023-06-19T09:03:21;34.10;99.20
2387;DHT22;49473;50.772;8.768;2023-06-19T09:05:48;34.30;97.00
2387;DHT22;49473;50.772;8.768;2023-06-19T09:08:16;34.00;97.50
2387;DHT22;49473;50.772;8.768;2023-06-19T09:10:53;34.10;96.80
2387;DHT22;49473;50.772;8.768;2023-06-19T09:13:20;34.30;96.10
2387;DHT22;49473;50.772;8.768;2023-06-19T09:15:46;33.40;95.70
2387;DHT22;49473;50.772;8.768;2023-06-19T09:18:15;32.60;96.80
2387;DHT22;49473;50.772;8.768;2023-06-19T09:20:46;32.50;98.10
2387;DHT22;49473;50.772;8.768;2023-06-19T09:23:20;33.10;97.00
2387;DHT22;49473;50.772;8.768;2023-06-19T09:25:47;33.00;96.10
2387;DHT22;49473;50.772;8.768;2023-06-19T09:28:26;33.20;96.60
2387;DHT22;49473;50.772;8.768;2023-06-19T09:30:54;34.60;94.90
2387;DHT22;49473;50.772;8.768;2023-06-19T09:33:23;35.40;94.20
2387;DHT22;49473;50.772;8.768;2023-06-19T09:35:54;35.60;92.30
2387;DHT22;49473;50.772;8.768;2023-06-19T09:38:23;35.00;92.00
2387;DHT22;49473;50.772;8.768;2023-06-19T09:40:52;34.70;91.80
2387;DHT22;49473;50.772;8.768;2023-06-19T09:43:23;34.30;93.10
2387;DHT22;49473;50.772;8.768;2023-06-19T09:45:53;34.10;92.00
2387;DHT22;49473;50.772;8.768;2023-06-19T09:48:27;34.10;92.70
2387;DHT22;49473;50.772;8.768;2023-06-19T09:51:05;34.00;92.00
2387;DHT22;49473;50.772;8.768;2023-06-19T09:53:32;34.40;93.20
2387;DHT22;49473;50.772;8.768;2023-06-19T09:56:12;34.30;93.80
2387;DHT22;49473;50.772;8.768;2023-06-19T09:58:40;33.90;93.50
2387;DHT22;49473;50.772;8.768;2023-06-19T10:01:08;33.10;93.90
2387;DHT22;49473;50.772;8.768;2023-06-19T10:03:36;32.60;96.00
2387;DHT22;49473;50.772;8.768;2023-06-19T10:06:04;33.30;94.50
2387;DHT22;49473;50.772;8.768;2023-06-19T10:08:38;33.50;94.30
2387;DHT22;49473;50.772;8.768;2023-06-19T10:11:06;33.00;94.10
2387;DHT22;49473;50.772;8.768;2023-06-19T10:13:34;33.30;95.70
2387;DHT22;49473;50.772;8.768;2023-06-19T10:16:20;34.30;93.90
2387;DHT22;49473;50.772;8.768;2023-06-19T10:18:48;35.00;92.90
2387;DHT22;49473;50.772;8.768;2023-06-19T10:21:19;35.00;92.10
2387;DHT22;49473;50.772;8.768;2023-06-19T10:23:54;34.70;91.90
2387;DHT22;49473;50.772;8.768;2023-06-19T10:26:31;33.80;92.50
2387;DHT22;49473;50.772;8.768;2023-06-19T10:28:58;33.10;93.60
2387;DHT22;49473;50.772;8.768;2023-06-19T10:31:25;32.70;94.40
2387;DHT22;49473;50.772;8.768;2023-06-19T10:33:55;32.70;94.30
2387;DHT22;49473;50.772;8.768;2023-06-19T10:36:23;32.50;94.60
2387;DHT22;49473;50.772;8.768;2023-06-19T10:38:51;32.50;95.60
2387;DHT22;49473;50.772;8.768;2023-06-19T10:41:21;32.40;94.20
2387;DHT22;49473;50.772;8.768;2023-06-19T10:43:53;32.20;94.50
2387;DHT22;49473;50.772;8.768;2023-06-19T10:46:21;32.10;93.70
2387;DHT22;49473;50.772;8.768;2023-06-19T10:48:48;32.10;95.20
2387;DHT22;49473;50.772;8.768;2023-06-19T10:51:18;32.10;94.60
2387;DHT22;49473;50.772;8.768;2023-06-19T10:53:47;31.80;95.60
2387;DHT22;49473;50.772;8.768;2023-06-19T10:56:14;31.70;95.00
2387;DHT22;49473;50.772;8.768;2023-06-19T10:58:42;31.80;96.20
2387;DHT22;49473;50.772;8.768;2023-06-19T11:01:09;32.50;95.60
2387;DHT22;49473;50.772;8.768;2023-06-19T11:03:36;33.50;92.70
2387;DHT22;49473;50.772;8.768;2023-06-19T11:06:04;34.50;92.40
2387;DHT22;49473;50.772;8.768;2023-06-19T11:08:31;35.80;90.30
2387;DHT22;49473;50.772;8.768;2023-06-19T11:10:59;36.60;89.00
2387;DHT22;49473;50.772;8.768;2023-06-19T11:13:26;37.80;84.20
2387;DHT22;49473;50.772;8.768;2023-06-19T11:15:53;38.10;81.20
2387;DHT22;49473;50.772;8.768;2023-06-19T11:18:19;37.70;77.40
2387;DHT22;49473;50.772;8.768;2023-06-19T11:20:47;38.70;79.20
2387;DHT22;49473;50.772;8.768;2023-06-19T11:23:17;39.00;76.40
2387;DHT22;49473;50.772;8.768;2023-06-19T11:25:50;37.60;74.70
2387;DHT22;49473;50.772;8.768;2023-06-19T11:28:19;37.10;77.10
2387;DHT22;49473;50.772;8.768;2023-06-19T11:30:48;37.20;77.60
2387;DHT22;49473;50.772;8.768;2023-06-19T11:33:16;37.90;76.70
2387;DHT22;49473;50.772;8.768;2023-06-19T11:35:47;38.60;74.40
2387;DHT22;49473;50.772;8.768;2023-06-19T11:38:17;38.90;74.40
2387;DHT22;49473;50.772;8.768;2023-06-19T11:40:45;39.30;71.90
2387;DHT22;49473;50.772;8.768;2023-06-19T11:43:12;39.60;72.70
2387;DHT22;49473;50.772;8.768;2023-06-19T11:45:48;40.40;68.80
2387;DHT22;49473;50.772;8.768;2023-06-19T11:48:21;41.00;67.30
2387;DHT22;49473;50.772;8.768;2023-06-19T11:50:48;40.80;64.30
2387;DHT22;49473;50.772;8.768;2023-06-19T11:53:15;40.30;65.50
2387;DHT22;49473;50.772;8.768;2023-06-19T11:55:42;39.30;64.80
2387;DHT22;49473;50.772;8.768;2023-06-19T11:58:09;38.20;67.10
2387;DHT22;49473;50.772;8.768;2023-06-19T12:00:36;37.10;68.80
2387;DHT22;49473;50.772;8.768;2023-06-19T12:03:04;36.20;72.20
2387;DHT22;49473;50.772;8.768;2023-06-19T12:05:31;36.50;71.90
2387;DHT22;49473;50.772;8.768;2023-06-19T12:07:58;36.40;70.10
2387;DHT22;49473;50.772;8.768;2023-06-19T12:10:28;35.90;71.90
2387;DHT22;49473;50.772;8.768;2023-06-19T12:12:55;36.80;72.60
2387;DHT22;49473;50.772;8.768;2023-06-19T12:15:22;37.80;69.50
2387;DHT22;49473;50.772;8.768;2023-06-19T12:17:50;37.80;67.00
2387;DHT22;49473;50.772;8.768;2023-06-19T12:20:19;38.20;67.40
2387;DHT22;49473;50.772;8.768;2023-06-19T12:22:46;38.80;66.00
2387;DHT22;49473;50.772;8.768;2023-06-19T12:25:12;38.80;66.70
2387;DHT22;49473;50.772;8.768;2023-06-19T12:27:39;38.10;65.00
2387;DHT22;49473;50.772;8.768;2023-06-19T12:30:07;37.50;67.20
2387;DHT22;49473;50.772;8.768;2023-06-19T12:32:34;37.10;65.30
2387;DHT22;49473;50.772;8.768;2023-06-19T12:35:01;36.30;67.90
2387;DHT22;49473;50.772;8.768;2023-06-19T12:37:31;35.80;69.90
2387;DHT22;49473;50.772;8.768;2023-06-19T12:39:58;35.80;69.90
2387;DHT22;49473;50.772;8.768;2023-06-19T12:42:25;35.80;70.80
2387;DHT22;49473;50.772;8.768;2023-06-19T12:44:51;36.00;68.50
2387;DHT22;49473;50.772;8.768;2023-06-19T12:47:19;35.60;70.70
2387;DHT22;49473;50.772;8.768;2023-06-19T12:49:52;35.20;70.40
2387;DHT22;49473;50.772;8.768;2023-06-19T12:52:19;34.40;71.10
2387;DHT22;49473;50.772;8.768;2023-06-19T12:54:47;34.20;73.30
2387;DHT22;49473;50.772;8.768;2023-06-19T12:57:14;33.90;72.60
2387;DHT22;49473;50.772;8.768;2023-06-19T12:59:40;34.00;73.70
2387;DHT22;49473;50.772;8.768;2023-06-19T13:02:07;33.40;69.50
2387;DHT22;49473;50.772;8.768;2023-06-19T13:04:34;33.10;72.10
2387;DHT22;49473;50.772;8.768;2023-06-19T13:07:01;33.30;71.80
2387;DHT22;49473;50.772;8.768;2023-06-19T13:09:28;33.70;72.50
2387;DHT22;49473;50.772;8.768;2023-06-19T13:11:56;33.80;74.10
2387;DHT22;49473;50.772;8.768;2023-06-19T13:14:23;33.70;71.50
2387;DHT22;49473;50.772;8.768;2023-06-19T13:16:50;33.60;72.80
2387;DHT22;49473;50.772;8.768;2023-06-19T13:19:16;33.70;69.90
2387;DHT22;49473;50.772;8.768;2023-06-19T13:21:43;33.30;72.80
2387;DHT22;49473;50.772;8.768;2023-06-19T13:24:10;32.60;72.60
2387;DHT22;49473;50.772;8.768;2023-06-19T13:26:40;32.30;74.20
2387;DHT22;49473;50.772;8.768;2023-06-19T13:29:08;31.90;73.80
2387;DHT22;49473;50.772;8.768;2023-06-19T13:31:35;31.60;74.40
2387;DHT22;49473;50.772;8.768;2023-06-19T13:34:02;31.60;76.10
2387;DHT22;49473;50.772;8.768;2023-06-19T13:36:29;31.40;75.60
2387;DHT22;49473;50.772;8.768;2023-06-19T13:38:55;31.20;75.90
2387;DHT22;49473;50.772;8.768;2023-06-19T13:41:22;31.20;78.60
2387;DHT22;49473;50.772;8.768;2023-06-19T13:43:50;31.10;77.40
2387;DHT22;49473;50.772;8.768;2023-06-19T13:46:21;31.00;80.00
2387;DHT22;49473;50.772;8.768;2023-06-19T13:48:48;31.10;80.00
2387;DHT22;49473;50.772;8.768;2023-06-19T13:51:16;31.10;80.30
2387;DHT22;49473;50.772;8.768;2023-06-19T13:53:43;31.30;79.30
2387;DHT22;49473;50.772;8.768;2023-06-19T13:56:12;31.10;79.40
2387;DHT22;49473;50.772;8.768;2023-06-19T13:58:40;31.10;77.70
2387;DHT22;49473;50.772;8.768;2023-06-19T14:01:07;31.30;78.50
2387;DHT22;49473;50.772;8.768;2023-06-19T14:03:38;31.50;80.90
2387;DHT22;49473;50.772;8.768;2023-06-19T14:06:05;31.80;80.80
2387;DHT22;49473;50.772;8.768;2023-06-19T14:08:32;31.80;80.00
2387;DHT22;49473;50.772;8.768;2023-06-19T14:11:01;31.70;77.40
2387;DHT22;49473;50.772;8.768;2023-06-19T14:13:28;31.70;76.30
2387;DHT22;49473;50.772;8.768;2023-06-19T14:15:55;31.70;77.30
2387;DHT22;49473;50.772;8.768;2023-06-19T14:18:28;31.50;77.20
2387;DHT22;49473;50.772;8.768;2023-06-19T14:20:56;31.50;79.00
2387;DHT22;49473;50.772;8.768;2023-06-19T14:23:22;31.40;78.10
2387;DHT22;49473;50.772;8.768;2023-06-19T14:25:49;31.30;78.90
2387;DHT22;49473;50.772;8.768;2023-06-19T14:28:16;31.20;77.60
2387;DHT22;49473;50.772;8.768;2023-06-19T14:30:43;31.20;79.50
2387;DHT22;49473;50.772;8.768;2023-06-19T14:33:10;31.30;80.30
2387;DHT22;49473;50.772;8.768;2023-06-19T14:35:40;31.40;78.30
2387;DHT22;49473;50.772;8.768;2023-06-19T14:38:09;31.20;76.50
2387;DHT22;49473;50.772;8.768;2023-06-19T14:40:35;31.00;77.10
2387;DHT22;49473;50.772;8.768;2023-06-19T14:43:02;30.80;78.00
2387;DHT22;49473;50.772;8.768;2023-06-19T14:45:29;30.70;79.30
2387;DHT22;49473;50.772;8.768;2023-06-19T14:47:57;30.60;79.70
2387;DHT22;49473;50.772;8.768;2023-06-19T14:50:24;30.70;79.90
2387;DHT22;49473;50.772;8.768;2023-06-19T14:52:51;30.60;80.00
2387;DHT22;49473;50.772;8.768;2023-06-19T14:55:19;30.70;82.10
2387;DHT22;49473;50.772;8.768;2023-06-19T14:57:46;30.70;81.30
2387;DHT22;49473;50.772;8.768;2023-06-19T15:00:14;30.60;80.70
2387;DHT22;49473;50.772;8.768;2023-06-19T15:02:40;30.60;81.00
2387;DHT22;49473;50.772;8.768;2023-06-19T15:05:08;30.70;80.20
2387;DHT22;49473;50.772;8.768;2023-06-19T15:07:35;30.60;80.40
2387;DHT22;49473;50.772;8.768;2023-06-19T15:10:02;30.50;81.50
2387;DHT22;49473;50.772;8.768;2023-06-19T15:12:32;30.30;79.50
2387;DHT22;49473;50.772;8.768;2023-06-19T15:15:00;30.20;82.20
2387;DHT22;49473;50.772;8.768;2023-06-19T15:17:27;30.10;80.30
2387;DHT22;49473;50.772;8.768;2023-06-19T15:19:54;30.00;81.60
2387;DHT22;49473;50.772;8.768;2023-06-19T15:22:20;30.00;82.40
2387;DHT22;49473;50.772;8.768;2023-06-19T15:24:47;30.00;82.90
2387;DHT22;49473;50.772;8.768;2023-06-19T15:27:14;29.80;82.40
2387;DHT22;49473;50.772;8.768;2023-06-19T15:29:42;29.60;81.90
2387;DHT22;49473;50.772;8.768;2023-06-19T15:32:13;29.50;85.10
2387;DHT22;49473;50.772;8.768;2023-06-19T15:34:40;29.50;85.00
2387;DHT22;49473;50.772;8.768;2023-06-19T15:37:06;29.70;85.10
2387;DHT22;49473;50.772;8.768;2023-06-19T15:39:33;29.70;81.90
2387;DHT22;49473;50.772;8.768;2023-06-19T15:42:00;29.80;82.70
2387;DHT22;49473;50.772;8.768;2023-06-19T15:44:27;29.90;82.90
2387;DHT22;49473;50.772;8.768;2023-06-19T15:46:55;30.00;84.40
2387;DHT22;49473;50.772;8.768;2023-06-19T15:49:21;30.00;82.10
2387;DHT22;49473;50.772;8.768;2023-06-19T15:51:48;30.00;81.70